sensor_id;sensor_type;location;lat;lon;timestamp;P1;durP1;ratioP1;P2;durP2;ratioP2
20154;SDS011;10238;49.556;10.956;2022-10-26T00:01:35;3.53;;;2.83;;
20154;SDS011;10238;49.556;10.956;2022-10-26T00:04:23;3.88;;;2.70;;
20154;SDS011;10238;49.556;10.956;2022-10-26T00:07:10;2.75;;;2.55;;
20154;SDS011;10238;49.556;10.956;2022-10-26T00:09:58;6.88;;;2.80;;
20154;SDS011;10238;49.556;10.956;2022-10-26T00:12:48;5.15;;;2.88;;
20154;SDS011;10238;49.556;10.956;2022-10-26T00:15:38;4.55;;;3.22;;
20154;SDS011;10238;49.556;10.956;2022-10-26T00:18:27;4.15;;;2.78;;
20154;SDS011;10238;49.556;10.956;2022-10-26T00:21:15;4.38;;;2.70;;
20154;SDS011;10238;49.556;10.956;2022-10-26T00:24:04;7.82;;;3.33;;
20154;SDS011;10238;49.556;10.956;2022-10-26T00:26:52;4.43;;;2.80;;
20154;SDS011;10238;49.556;10.956;2022-10-26T00:29:40;5.20;;;3.03;;
20154;SDS011;10238;49.556;10.956;2022-10-26T00:32:28;3.15;;;2.42;;
20154;SDS011;10238;49.556;10.956;2022-10-26T00:35:15;4.53;;;2.80;;
20154;SDS011;10238;49.556;10.956;2022-10-26T00:38:13;3.67;;;2.78;;
20154;SDS011;10238;49.556;10.956;2022-10-26T00:41:01;5.28;;;2.70;;
20154;SDS011;10238;49.556;10.956;2022-10-26T00:43:48;3.55;;;2.67;;
20154;SDS011;10238;49.556;10.956;2022-10-26T00:46:38;2.75;;;2.53;;
20154;SDS011;10238;49.556;10.956;2022-10-26T00:49:26;6.97;;;2.72;;
20154;SDS011;10238;49.556;10.956;2022-10-26T00:52:13;4.90;;;2.35;;
20154;SDS011;10238;49.556;10.956;2022-10-26T00:55:04;3.45;;;2.78;;
20154;SDS011;10238;49.556;10.956;2022-10-26T00:57:54;4.03;;;2.70;;
20154;SDS011;10238;49.556;10.956;2022-10-26T01:00:42;4.00;;;2.67;;
20154;SDS011;10238;49.556;10.956;2022-10-26T01:03:32;6.05;;;2.75;;
20154;SDS011;10238;49.556;10.956;2022-10-26T01:06:22;2.67;;;2.47;;
20154;SDS011;10238;49.556;10.956;2022-10-26T01:09:09;3.22;;;2.65;;
20154;SDS011;10238;49.556;10.956;2022-10-26T01:11:58;6.32;;;3.67;;
20154;SDS011;10238;49.556;10.956;2022-10-26T01:14:46;6.22;;;3.42;;
20154;SDS011;10238;49.556;10.956;2022-10-26T01:17:38;4.78;;;3.15;;
20154;SDS011;10238;49.556;10.956;2022-10-26T01:24:27;3.85;;;3.05;;
20154;SDS011;10238;49.556;10.956;2022-10-26T01:27:44;6.00;;;3.40;;
20154;SDS011;10238;49.556;10.956;2022-10-26T01:30:38;3.65;;;3.17;;
20154;SDS011;10238;49.556;10.956;2022-10-26T01:33:31;4.07;;;3.38;;
20154;SDS011;10238;49.556;10.956;2022-10-26T01:36:26;5.80;;;3.08;;
20154;SDS011;10238;49.556;10.956;2022-10-26T01:39:22;4.68;;;2.92;;
20154;SDS011;10238;49.556;10.956;2022-10-26T01:42:15;3.90;;;3.17;;
20154;SDS011;10238;49.556;10.956;2022-10-26T01:45:07;5.30;;;3.05;;
20154;SDS011;10238;49.556;10.956;2022-10-26T01:48:02;3.15;;;2.85;;
20154;SDS011;10238;49.556;10.956;2022-10-26T01:50:52;4.13;;;2.67;;
20154;SDS011;10238;49.556;10.956;2022-10-26T01:53:44;5.07;;;2.85;;
20154;SDS011;10238;49.556;10.956;2022-10-26T01:56:33;3.08;;;2.50;;
20154;SDS011;10238;49.556;10.956;2022-10-26T01:59:30;6.45;;;3.47;;
20154;SDS011;10238;49.556;10.956;2022-10-26T02:02:41;5.38;;;2.72;;
20154;SDS011;10238;49.556;10.956;2022-10-26T02:05:56;3.40;;;2.80;;
20154;SDS011;10238;49.556;10.956;2022-10-26T02:09:00;4.53;;;2.90;;
20154;SDS011;10238;49.556;10.956;2022-10-26T02:12:05;5.05;;;2.80;;
20154;SDS011;10238;49.556;10.956;2022-10-26T02:15:04;8.75;;;2.95;;
20154;SDS011;10238;49.556;10.956;2022-10-26T02:17:59;4.07;;;2.90;;
20154;SDS011;10238;49.556;10.956;2022-10-26T02:20:58;6.25;;;3.28;;
20154;SDS011;10238;49.556;10.956;2022-10-26T02:23:54;4.88;;;3.30;;
20154;SDS011;10238;49.556;10.956;2022-10-26T02:26:45;4.30;;;2.70;;
20154;SDS011;10238;49.556;10.956;2022-10-26T02:29:38;4.65;;;3.30;;
20154;SDS011;10238;49.556;10.956;2022-10-26T02:32:32;4.18;;;3.10;;
20154;SDS011;10238;49.556;10.956;2022-10-26T02:35:27;2.80;;;2.60;;
20154;SDS011;10238;49.556;10.956;2022-10-26T02:38:22;4.30;;;3.00;;
20154;SDS011;10238;49.556;10.956;2022-10-26T02:41:13;4.50;;;2.70;;
20154;SDS011;10238;49.556;10.956;2022-10-26T02:44:04;5.05;;;2.90;;
20154;SDS011;10238;49.556;10.956;2022-10-26T02:47:02;6.18;;;3.85;;
20154;SDS011;10238;49.556;10.956;2022-10-26T02:49:50;4.05;;;2.75;;
20154;SDS011;10238;49.556;10.956;2022-10-26T02:52:41;3.22;;;2.92;;
20154;SDS011;10238;49.556;10.956;2022-10-26T02:55:43;3.72;;;2.70;;
20154;SDS011;10238;49.556;10.956;2022-10-26T02:58:36;2.83;;;2.47;;
20154;SDS011;10238;49.556;10.956;2022-10-26T03:01:31;3.05;;;2.72;;
20154;SDS011;10238;49.556;10.956;2022-10-26T03:04:26;3.95;;;3.00;;
20154;SDS011;10238;49.556;10.956;2022-10-26T03:07:19;3.40;;;2.65;;
20154;SDS011;10238;49.556;10.956;2022-10-26T03:10:09;4.10;;;3.08;;
20154;SDS011;10238;49.556;10.956;2022-10-26T03:12:58;4.82;;;3.10;;
20154;SDS011;10238;49.556;10.956;2022-10-26T03:15:46;3.08;;;2.67;;
20154;SDS011;10238;49.556;10.956;2022-10-26T03:18:34;5.13;;;3.03;;
20154;SDS011;10238;49.556;10.956;2022-10-26T03:21:23;4.28;;;3.10;;
20154;SDS011;10238;49.556;10.956;2022-10-26T03:24:10;5.20;;;2.95;;
20154;SDS011;10238;49.556;10.956;2022-10-26T03:26:58;3.85;;;2.70;;
20154;SDS011;10238;49.556;10.956;2022-10-26T03:29:48;5.20;;;3.03;;
20154;SDS011;10238;49.556;10.956;2022-10-26T03:32:36;2.85;;;2.53;;
20154;SDS011;10238;49.556;10.956;2022-10-26T03:35:24;4.00;;;2.55;;
20154;SDS011;10238;49.556;10.956;2022-10-26T03:38:15;4.13;;;2.38;;
20154;SDS011;10238;49.556;10.956;2022-10-26T03:41:02;2.70;;;2.50;;
20154;SDS011;10238;49.556;10.956;2022-10-26T03:43:50;3.75;;;2.75;;
20154;SDS011;10238;49.556;10.956;2022-10-26T03:46:39;3.95;;;2.85;;
20154;SDS011;10238;49.556;10.956;2022-10-26T03:49:26;3.78;;;2.97;;
20154;SDS011;10238;49.556;10.956;2022-10-26T03:52:14;6.70;;;4.00;;
20154;SDS011;10238;49.556;10.956;2022-10-26T03:55:01;3.08;;;2.78;;
20154;SDS011;10238;49.556;10.956;2022-10-26T03:57:53;8.02;;;3.28;;
20154;SDS011;10238;49.556;10.956;2022-10-26T04:00:41;2.88;;;2.65;;
20154;SDS011;10238;49.556;10.956;2022-10-26T04:03:34;3.65;;;3.00;;
20154;SDS011;10238;49.556;10.956;2022-10-26T04:06:21;3.35;;;2.80;;
20154;SDS011;10238;49.556;10.956;2022-10-26T04:09:09;2.83;;;2.63;;
20154;SDS011;10238;49.556;10.956;2022-10-26T04:11:56;4.07;;;2.53;;
20154;SDS011;10238;49.556;10.956;2022-10-26T04:14:44;3.83;;;2.92;;
20154;SDS011;10238;49.556;10.956;2022-10-26T04:17:33;3.33;;;3.03;;
20154;SDS011;10238;49.556;10.956;2022-10-26T04:20:23;3.17;;;2.80;;
20154;SDS011;10238;49.556;10.956;2022-10-26T04:23:12;6.35;;;3.10;;
20154;SDS011;10238;49.556;10.956;2022-10-26T04:26:03;3.58;;;2.42;;
20154;SDS011;10238;49.556;10.956;2022-10-26T04:28:54;3.92;;;2.60;;
20154;SDS011;10238;49.556;10.956;2022-10-26T04:31:41;3.72;;;2.40;;
20154;SDS011;10238;49.556;10.956;2022-10-26T04:34:29;8.38;;;3.00;;
20154;SDS011;10238;49.556;10.956;2022-10-26T04:37:19;3.95;;;2.78;;
20154;SDS011;10238;49.556;10.956;2022-10-26T04:40:07;3.28;;;2.83;;
20154;SDS011;10238;49.556;10.956;2022-10-26T04:42:56;3.35;;;2.30;;
20154;SDS011;10238;49.556;10.956;2022-10-26T04:45:44;3.17;;;2.30;;
20154;SDS011;10238;49.556;10.956;2022-10-26T04:48:32;3.78;;;2.85;;
20154;SDS011;10238;49.556;10.956;2022-10-26T04:51:19;4.35;;;2.63;;
20154;SDS011;10238;49.556;10.956;2022-10-26T04:54:11;3.30;;;1.95;;
20154;SDS011;10238;49.556;10.956;2022-10-26T04:56:59;3.63;;;2.63;;
20154;SDS011;10238;49.556;10.956;2022-10-26T04:59:47;4.25;;;2.40;;
20154;SDS011;10238;49.556;10.956;2022-10-26T05:02:34;4.45;;;2.80;;
20154;SDS011;10238;49.556;10.956;2022-10-26T05:05:23;2.50;;;2.25;;
20154;SDS011;10238;49.556;10.956;2022-10-26T05:08:11;5.95;;;2.42;;
20154;SDS011;10238;49.556;10.956;2022-10-26T05:11:00;2.92;;;2.53;;
20154;SDS011;10238;49.556;10.956;2022-10-26T05:13:47;3.40;;;2.38;;
20154;SDS011;10238;49.556;10.956;2022-10-26T05:16:35;2.60;;;2.40;;
20154;SDS011;10238;49.556;10.956;2022-10-26T05:19:22;3.03;;;2.47;;
20154;SDS011;10238;49.556;10.956;2022-10-26T05:22:10;3.78;;;2.30;;
20154;SDS011;10238;49.556;10.956;2022-10-26T05:24:57;2.92;;;2.70;;
20154;SDS011;10238;49.556;10.956;2022-10-26T05:27:46;4.82;;;2.40;;
20154;SDS011;10238;49.556;10.956;2022-10-26T05:30:34;6.32;;;2.90;;
20154;SDS011;10238;49.556;10.956;2022-10-26T05:33:22;4.63;;;3.35;;
20154;SDS011;10238;49.556;10.956;2022-10-26T05:36:10;5.90;;;2.95;;
20154;SDS011;10238;49.556;10.956;2022-10-26T05:38:57;6.32;;;3.47;;
20154;SDS011;10238;49.556;10.956;2022-10-26T05:41:45;3.58;;;3.15;;
20154;SDS011;10238;49.556;10.956;2022-10-26T05:44:34;4.40;;;2.70;;
20154;SDS011;10238;49.556;10.956;2022-10-26T05:47:22;4.57;;;3.35;;
20154;SDS011;10238;49.556;10.956;2022-10-26T05:50:10;2.65;;;2.45;;
20154;SDS011;10238;49.556;10.956;2022-10-26T05:52:59;7.15;;;3.67;;
20154;SDS011;10238;49.556;10.956;2022-10-26T05:55:48;9.93;;;3.75;;
20154;SDS011;10238;49.556;10.956;2022-10-26T05:58:36;3.05;;;2.58;;
20154;SDS011;10238;49.556;10.956;2022-10-26T06:01:27;4.25;;;3.15;;
20154;SDS011;10238;49.556;10.956;2022-10-26T06:04:30;4.60;;;2.63;;
20154;SDS011;10238;49.556;10.956;2022-10-26T06:07:24;6.32;;;2.97;;
20154;SDS011;10238;49.556;10.956;2022-10-26T06:10:12;4.78;;;2.65;;
20154;SDS011;10238;49.556;10.956;2022-10-26T06:13:01;5.65;;;2.92;;
20154;SDS011;10238;49.556;10.956;2022-10-26T06:16:05;3.40;;;2.90;;
20154;SDS011;10238;49.556;10.956;2022-10-26T06:19:20;8.13;;;4.07;;
20154;SDS011;10238;49.556;10.956;2022-10-26T06:22:27;6.07;;;3.72;;
20154;SDS011;10238;49.556;10.956;2022-10-26T06:25:34;3.40;;;2.90;;
20154;SDS011;10238;49.556;10.956;2022-10-26T06:28:35;3.25;;;2.40;;
20154;SDS011;10238;49.556;10.956;2022-10-26T06:31:37;4.75;;;2.70;;
20154;SDS011;10238;49.556;10.956;2022-10-26T06:34:25;5.75;;;2.92;;
20154;SDS011;10238;49.556;10.956;2022-10-26T06:40:07;6.03;;;2.80;;
20154;SDS011;10238;49.556;10.956;2022-10-26T06:42:57;3.40;;;2.17;;
20154;SDS011;10238;49.556;10.956;2022-10-26T06:45:45;4.70;;;2.83;;
20154;SDS011;10238;49.556;10.956;2022-10-26T06:48:48;3.55;;;2.80;;
20154;SDS011;10238;49.556;10.956;2022-10-26T06:51:55;5.50;;;3.00;;
20154;SDS011;10238;49.556;10.956;2022-10-26T06:54:47;4.65;;;3.30;;
20154;SDS011;10238;49.556;10.956;2022-10-26T06:57:38;3.50;;;2.60;;
20154;SDS011;10238;49.556;10.956;2022-10-26T07:00:30;3.95;;;3.25;;
20154;SDS011;10238;49.556;10.956;2022-10-26T07:03:19;4.25;;;2.90;;
20154;SDS011;10238;49.556;10.956;2022-10-26T07:06:09;7.97;;;3.45;;
20154;SDS011;10238;49.556;10.956;2022-10-26T07:08:57;9.18;;;3.90;;
20154;SDS011;10238;49.556;10.956;2022-10-26T07:11:44;6.65;;;3.50;;
20154;SDS011;10238;49.556;10.956;2022-10-26T07:14:32;10.20;;;3.88;;
20154;SDS011;10238;49.556;10.956;2022-10-26T07:17:19;11.43;;;4.03;;
20154;SDS011;10238;49.556;10.956;2022-10-26T07:20:08;8.48;;;3.88;;
20154;SDS011;10238;49.556;10.956;2022-10-26T07:22:58;6.10;;;3.47;;
20154;SDS011;10238;49.556;10.956;2022-10-26T07:25:46;7.90;;;4.22;;
20154;SDS011;10238;49.556;10.956;2022-10-26T07:28:34;8.05;;;4.47;;
20154;SDS011;10238;49.556;10.956;2022-10-26T07:31:22;9.35;;;5.05;;
20154;SDS011;10238;49.556;10.956;2022-10-26T07:34:11;10.57;;;5.32;;
20154;SDS011;10238;49.556;10.956;2022-10-26T07:36:58;10.07;;;5.32;;
20154;SDS011;10238;49.556;10.956;2022-10-26T07:39:48;8.85;;;5.15;;
20154;SDS011;10238;49.556;10.956;2022-10-26T07:42:36;5.68;;;4.32;;
20154;SDS011;10238;49.556;10.956;2022-10-26T07:45:29;8.77;;;4.72;;
20154;SDS011;10238;49.556;10.956;2022-10-26T07:48:17;11.43;;;4.55;;
20154;SDS011;10238;49.556;10.956;2022-10-26T07:51:05;9.20;;;4.35;;
20154;SDS011;10238;49.556;10.956;2022-10-26T07:53:54;10.23;;;4.43;;
20154;SDS011;10238;49.556;10.956;2022-10-26T07:56:43;5.63;;;3.75;;
20154;SDS011;10238;49.556;10.956;2022-10-26T07:59:30;3.83;;;3.00;;
20154;SDS011;10238;49.556;10.956;2022-10-26T08:02:19;6.65;;;3.65;;
20154;SDS011;10238;49.556;10.956;2022-10-26T08:05:06;10.55;;;4.28;;
20154;SDS011;10238;49.556;10.956;2022-10-26T08:07:54;10.15;;;4.03;;
20154;SDS011;10238;49.556;10.956;2022-10-26T08:10:42;8.90;;;4.60;;
20154;SDS011;10238;49.556;10.956;2022-10-26T08:13:32;12.30;;;4.43;;
20154;SDS011;10238;49.556;10.956;2022-10-26T08:16:20;5.60;;;4.22;;
20154;SDS011;10238;49.556;10.956;2022-10-26T08:19:09;5.43;;;4.07;;
20154;SDS011;10238;49.556;10.956;2022-10-26T08:21:57;6.40;;;4.00;;
20154;SDS011;10238;49.556;10.956;2022-10-26T08:24:45;7.80;;;3.42;;
20154;SDS011;10238;49.556;10.956;2022-10-26T08:27:33;6.55;;;3.88;;
20154;SDS011;10238;49.556;10.956;2022-10-26T08:30:22;6.90;;;3.55;;
20154;SDS011;10238;49.556;10.956;2022-10-26T08:33:10;4.47;;;3.50;;
20154;SDS011;10238;49.556;10.956;2022-10-26T08:35:58;4.95;;;3.35;;
20154;SDS011;10238;49.556;10.956;2022-10-26T08:38:48;3.55;;;2.90;;
20154;SDS011;10238;49.556;10.956;2022-10-26T08:41:39;4.65;;;2.80;;
20154;SDS011;10238;49.556;10.956;2022-10-26T08:44:32;10.48;;;4.30;;
20154;SDS011;10238;49.556;10.956;2022-10-26T08:47:29;6.47;;;2.97;;
20154;SDS011;10238;49.556;10.956;2022-10-26T08:50:24;7.32;;;3.63;;
20154;SDS011;10238;49.556;10.956;2022-10-26T08:53:19;4.95;;;3.70;;
20154;SDS011;10238;49.556;10.956;2022-10-26T08:56:17;7.00;;;3.63;;
20154;SDS011;10238;49.556;10.956;2022-10-26T08:59:10;4.65;;;4.15;;
20154;SDS011;10238;49.556;10.956;2022-10-26T09:02:10;6.30;;;3.33;;
20154;SDS011;10238;49.556;10.956;2022-10-26T09:05:01;8.70;;;4.32;;
20154;SDS011;10238;49.556;10.956;2022-10-26T09:07:52;4.97;;;3.67;;
20154;SDS011;10238;49.556;10.956;2022-10-26T09:10:52;4.80;;;4.30;;
20154;SDS011;10238;49.556;10.956;2022-10-26T09:13:56;4.85;;;4.00;;
20154;SDS011;10238;49.556;10.956;2022-10-26T09:16:59;8.32;;;3.72;;
20154;SDS011;10238;49.556;10.956;2022-10-26T09:20:12;4.85;;;3.67;;
20154;SDS011;10238;49.556;10.956;2022-10-26T09:23:28;8.93;;;3.85;;
20154;SDS011;10238;49.556;10.956;2022-10-26T09:26:36;5.07;;;3.22;;
20154;SDS011;10238;49.556;10.956;2022-10-26T09:29:40;3.80;;;3.25;;
20154;SDS011;10238;49.556;10.956;2022-10-26T09:32:31;7.35;;;3.70;;
20154;SDS011;10238;49.556;10.956;2022-10-26T09:35:29;5.63;;;3.00;;
20154;SDS011;10238;49.556;10.956;2022-10-26T09:38:31;4.75;;;3.40;;
20154;SDS011;10238;49.556;10.956;2022-10-26T09:41:23;10.25;;;3.90;;
20154;SDS011;10238;49.556;10.956;2022-10-26T09:44:20;4.93;;;3.63;;
20154;SDS011;10238;49.556;10.956;2022-10-26T09:47:21;5.93;;;3.58;;
20154;SDS011;10238;49.556;10.956;2022-10-26T09:50:23;4.60;;;3.08;;
20154;SDS011;10238;49.556;10.956;2022-10-26T09:53:18;4.72;;;4.03;;
20154;SDS011;10238;49.556;10.956;2022-10-26T09:56:07;6.85;;;5.70;;
20154;SDS011;10238;49.556;10.956;2022-10-26T09:58:59;5.90;;;3.92;;
20154;SDS011;10238;49.556;10.956;2022-10-26T10:01:51;7.70;;;4.90;;
20154;SDS011;10238;49.556;10.956;2022-10-26T10:04:42;4.03;;;3.70;;
20154;SDS011;10238;49.556;10.956;2022-10-26T10:07:34;5.13;;;4.05;;
20154;SDS011;10238;49.556;10.956;2022-10-26T10:10:24;4.45;;;3.72;;
20154;SDS011;10238;49.556;10.956;2022-10-26T10:13:13;8.68;;;4.05;;
20154;SDS011;10238;49.556;10.956;2022-10-26T10:16:05;6.00;;;3.63;;
20154;SDS011;10238;49.556;10.956;2022-10-26T10:18:58;4.57;;;3.50;;
20154;SDS011;10238;49.556;10.956;2022-10-26T10:21:47;9.73;;;4.10;;
20154;SDS011;10238;49.556;10.956;2022-10-26T10:24:40;7.40;;;3.88;;
20154;SDS011;10238;49.556;10.956;2022-10-26T10:27:38;5.45;;;4.15;;
20154;SDS011;10238;49.556;10.956;2022-10-26T10:30:39;6.03;;;3.33;;
20154;SDS011;10238;49.556;10.956;2022-10-26T10:33:41;5.07;;;4.00;;
20154;SDS011;10238;49.556;10.956;2022-10-26T10:36:30;10.60;;;4.35;;
20154;SDS011;10238;49.556;10.956;2022-10-26T10:39:25;6.78;;;3.67;;
20154;SDS011;10238;49.556;10.956;2022-10-26T10:42:26;4.47;;;3.95;;
20154;SDS011;10238;49.556;10.956;2022-10-26T10:45:21;5.07;;;4.10;;
20154;SDS011;10238;49.556;10.956;2022-10-26T10:48:17;4.38;;;3.90;;
20154;SDS011;10238;49.556;10.956;2022-10-26T10:51:08;4.07;;;3.70;;
20154;SDS011;10238;49.556;10.956;2022-10-26T10:53:57;4.40;;;4.00;;
20154;SDS011;10238;49.556;10.956;2022-10-26T10:56:50;4.63;;;4.05;;
20154;SDS011;10238;49.556;10.956;2022-10-26T10:59:46;3.38;;;3.17;;
20154;SDS011;10238;49.556;10.956;2022-10-26T11:02:50;5.50;;;4.43;;
20154;SDS011;10238;49.556;10.956;2022-10-26T11:06:09;4.70;;;4.18;;
20154;SDS011;10238;49.556;10.956;2022-10-26T11:09:03;8.73;;;4.10;;
20154;SDS011;10238;49.556;10.956;2022-10-26T11:11:57;4.85;;;4.40;;
20154;SDS011;10238;49.556;10.956;2022-10-26T11:14:51;9.02;;;5.55;;
20154;SDS011;10238;49.556;10.956;2022-10-26T11:17:50;5.03;;;4.25;;
20154;SDS011;10238;49.556;10.956;2022-10-26T11:20:54;5.03;;;3.38;;
20154;SDS011;10238;49.556;10.956;2022-10-26T11:23:49;8.40;;;3.80;;
20154;SDS011;10238;49.556;10.956;2022-10-26T11:26:45;4.80;;;3.65;;
20154;SDS011;10238;49.556;10.956;2022-10-26T11:29:41;5.50;;;3.42;;
20154;SDS011;10238;49.556;10.956;2022-10-26T11:32:40;5.75;;;3.42;;
20154;SDS011;10238;49.556;10.956;2022-10-26T11:35:34;4.03;;;3.50;;
20154;SDS011;10238;49.556;10.956;2022-10-26T11:38:31;4.40;;;3.15;;
20154;SDS011;10238;49.556;10.956;2022-10-26T11:41:41;4.40;;;2.95;;
20154;SDS011;10238;49.556;10.956;2022-10-26T11:44:38;7.40;;;3.33;;
20154;SDS011;10238;49.556;10.956;2022-10-26T11:47:41;3.95;;;3.53;;
20154;SDS011;10238;49.556;10.956;2022-10-26T11:50:39;4.10;;;3.00;;
20154;SDS011;10238;49.556;10.956;2022-10-26T11:53:35;9.73;;;3.63;;
20154;SDS011;10238;49.556;10.956;2022-10-26T11:56:29;7.82;;;4.28;;
20154;SDS011;10238;49.556;10.956;2022-10-26T11:59:21;6.05;;;4.40;;
20154;SDS011;10238;49.556;10.956;2022-10-26T12:02:18;8.55;;;3.47;;
20154;SDS011;10238;49.556;10.956;2022-10-26T12:05:15;6.10;;;2.90;;
20154;SDS011;10238;49.556;10.956;2022-10-26T12:08:10;3.78;;;3.03;;
20154;SDS011;10238;49.556;10.956;2022-10-26T12:11:06;5.78;;;3.30;;
20154;SDS011;10238;49.556;10.956;2022-10-26T12:14:11;7.80;;;3.13;;
20154;SDS011;10238;49.556;10.956;2022-10-26T12:17:09;4.57;;;3.67;;
20154;SDS011;10238;49.556;10.956;2022-10-26T12:20:06;5.72;;;3.40;;
20154;SDS011;10238;49.556;10.956;2022-10-26T12:23:37;3.42;;;2.80;;
20154;SDS011;10238;49.556;10.956;2022-10-26T12:26:47;6.28;;;2.72;;
20154;SDS011;10238;49.556;10.956;2022-10-26T12:29:43;6.20;;;3.90;;
20154;SDS011;10238;49.556;10.956;2022-10-26T12:35:41;8.52;;;3.85;;
20154;SDS011;10238;49.556;10.956;2022-10-26T12:41:45;7.13;;;3.10;;
20154;SDS011;10238;49.556;10.956;2022-10-26T12:48:19;4.88;;;3.80;;
20154;SDS011;10238;49.556;10.956;2022-10-26T12:51:41;7.47;;;3.45;;
20154;SDS011;10238;49.556;10.956;2022-10-26T12:54:31;5.60;;;2.80;;
20154;SDS011;10238;49.556;10.956;2022-10-26T12:57:32;7.43;;;3.30;;
20154;SDS011;10238;49.556;10.956;2022-10-26T13:00:34;5.93;;;3.22;;
20154;SDS011;10238;49.556;10.956;2022-10-26T13:03:32;3.63;;;3.17;;
20154;SDS011;10238;49.556;10.956;2022-10-26T13:06:36;5.13;;;3.35;;
20154;SDS011;10238;49.556;10.956;2022-10-26T13:09:42;4.55;;;2.90;;
20154;SDS011;10238;49.556;10.956;2022-10-26T13:12:36;7.70;;;3.28;;
20154;SDS011;10238;49.556;10.956;2022-10-26T13:15:36;7.10;;;2.83;;
20154;SDS011;10238;49.556;10.956;2022-10-26T13:18:26;8.13;;;3.63;;
20154;SDS011;10238;49.556;10.956;2022-10-26T13:21:16;4.60;;;3.28;;
20154;SDS011;10238;49.556;10.956;2022-10-26T13:24:11;9.07;;;3.33;;
20154;SDS011;10238;49.556;10.956;2022-10-26T13:33:34;6.03;;;4.10;;
20154;SDS011;10238;49.556;10.956;2022-10-26T13:36:26;9.32;;;4.18;;
20154;SDS011;10238;49.556;10.956;2022-10-26T13:39:25;11.57;;;5.85;;
20154;SDS011;10238;49.556;10.956;2022-10-26T13:42:17;5.82;;;3.90;;
20154;SDS011;10238;49.556;10.956;2022-10-26T13:45:10;6.65;;;5.45;;
20154;SDS011;10238;49.556;10.956;2022-10-26T13:48:04;6.28;;;3.83;;
20154;SDS011;10238;49.556;10.956;2022-10-26T13:51:01;5.95;;;3.50;;
20154;SDS011;10238;49.556;10.956;2022-10-26T13:53:58;6.80;;;3.40;;
20154;SDS011;10238;49.556;10.956;2022-10-26T13:57:00;8.13;;;4.20;;
20154;SDS011;10238;49.556;10.956;2022-10-26T14:00:00;7.53;;;4.75;;
20154;SDS011;10238;49.556;10.956;2022-10-26T14:03:10;6.53;;;4.97;;
20154;SDS011;10238;49.556;10.956;2022-10-26T14:05:59;5.93;;;5.35;;
20154;SDS011;10238;49.556;10.956;2022-10-26T14:08:51;11.95;;;6.68;;
20154;SDS011;10238;49.556;10.956;2022-10-26T14:11:43;7.65;;;7.05;;
20154;SDS011;10238;49.556;10.956;2022-10-26T14:14:38;8.25;;;7.47;;
20154;SDS011;10238;49.556;10.956;2022-10-26T14:17:26;8.77;;;8.05;;
20154;SDS011;10238;49.556;10.956;2022-10-26T14:20:15;8.43;;;7.72;;
20154;SDS011;10238;49.556;10.956;2022-10-26T14:26:18;8.95;;;8.45;;
20154;SDS011;10238;49.556;10.956;2022-10-26T14:29:12;8.30;;;7.60;;
20154;SDS011;10238;49.556;10.956;2022-10-26T14:38:11;7.63;;;6.85;;
20154;SDS011;10238;49.556;10.956;2022-10-26T14:41:08;7.60;;;6.93;;
20154;SDS011;10238;49.556;10.956;2022-10-26T14:43:57;6.88;;;6.38;;
20154;SDS011;10238;49.556;10.956;2022-10-26T14:46:46;6.95;;;6.38;;
20154;SDS011;10238;49.556;10.956;2022-10-26T14:49:36;5.80;;;5.45;;
20154;SDS011;10238;49.556;10.956;2022-10-26T14:52:33;7.40;;;5.28;;
20154;SDS011;10238;49.556;10.956;2022-10-26T14:55:22;4.38;;;3.80;;
20154;SDS011;10238;49.556;10.956;2022-10-26T14:58:13;4.70;;;3.65;;
20154;SDS011;10238;49.556;10.956;2022-10-26T15:01:23;3.72;;;3.35;;
20154;SDS011;10238;49.556;10.956;2022-10-26T15:04:28;3.65;;;2.88;;
20154;SDS011;10238;49.556;10.956;2022-10-26T15:07:20;3.92;;;2.75;;
20154;SDS011;10238;49.556;10.956;2022-10-26T15:13:34;5.30;;;3.78;;
20154;SDS011;10238;49.556;10.956;2022-10-26T15:16:28;3.30;;;3.00;;
20154;SDS011;10238;49.556;10.956;2022-10-26T15:19:20;4.78;;;2.80;;
20154;SDS011;10238;49.556;10.956;2022-10-26T15:22:14;4.88;;;3.10;;
20154;SDS011;10238;49.556;10.956;2022-10-26T15:25:17;5.65;;;3.20;;
20154;SDS011;10238;49.556;10.956;2022-10-26T15:28:09;3.70;;;3.40;;
20154;SDS011;10238;49.556;10.956;2022-10-26T15:31:23;8.23;;;3.10;;
20154;SDS011;10238;49.556;10.956;2022-10-26T15:34:21;3.40;;;3.10;;
20154;SDS011;10238;49.556;10.956;2022-10-26T15:40:00;5.18;;;2.90;;
20154;SDS011;10238;49.556;10.956;2022-10-26T15:42:48;4.75;;;2.88;;
20154;SDS011;10238;49.556;10.956;2022-10-26T15:45:44;8.95;;;4.43;;
20154;SDS011;10238;49.556;10.956;2022-10-26T15:48:36;4.63;;;3.08;;
20154;SDS011;10238;49.556;10.956;2022-10-26T15:51:24;12.82;;;4.60;;
20154;SDS011;10238;49.556;10.956;2022-10-26T15:54:13;5.88;;;3.35;;
20154;SDS011;10238;49.556;10.956;2022-10-26T15:57:02;4.30;;;3.50;;
20154;SDS011;10238;49.556;10.956;2022-10-26T15:59:51;8.85;;;4.05;;
20154;SDS011;10238;49.556;10.956;2022-10-26T16:02:39;9.60;;;5.35;;
20154;SDS011;10238;49.556;10.956;2022-10-26T16:05:30;9.93;;;5.50;;
20154;SDS011;10238;49.556;10.956;2022-10-26T16:08:17;10.05;;;5.18;;
20154;SDS011;10238;49.556;10.956;2022-10-26T16:11:05;6.47;;;3.15;;
20154;SDS011;10238;49.556;10.956;2022-10-26T16:13:55;8.65;;;3.55;;
20154;SDS011;10238;49.556;10.956;2022-10-26T16:16:48;10.13;;;3.53;;
20154;SDS011;10238;49.556;10.956;2022-10-26T16:19:35;5.45;;;2.97;;
20154;SDS011;10238;49.556;10.956;2022-10-26T16:22:23;6.13;;;3.20;;
20154;SDS011;10238;49.556;10.956;2022-10-26T16:25:11;5.05;;;3.47;;
20154;SDS011;10238;49.556;10.956;2022-10-26T16:27:59;4.85;;;3.97;;
20154;SDS011;10238;49.556;10.956;2022-10-26T16:30:49;5.63;;;5.13;;
20154;SDS011;10238;49.556;10.956;2022-10-26T16:33:36;7.43;;;5.78;;
20154;SDS011;10238;49.556;10.956;2022-10-26T16:36:23;6.68;;;6.18;;
20154;SDS011;10238;49.556;10.956;2022-10-26T16:39:12;7.22;;;6.63;;
20154;SDS011;10238;49.556;10.956;2022-10-26T16:41:59;7.20;;;6.68;;
20154;SDS011;10238;49.556;10.956;2022-10-26T16:44:47;8.35;;;6.97;;
20154;SDS011;10238;49.556;10.956;2022-10-26T16:47:36;7.85;;;7.20;;
20154;SDS011;10238;49.556;10.956;2022-10-26T16:50:24;7.47;;;6.88;;
20154;SDS011;10238;49.556;10.956;2022-10-26T16:53:14;7.80;;;6.40;;
20154;SDS011;10238;49.556;10.956;2022-10-26T16:56:02;7.10;;;6.22;;
20154;SDS011;10238;49.556;10.956;2022-10-26T16:58:52;7.25;;;5.35;;
20154;SDS011;10238;49.556;10.956;2022-10-26T17:01:40;6.47;;;4.72;;
20154;SDS011;10238;49.556;10.956;2022-10-26T17:04:29;5.75;;;4.72;;
20154;SDS011;10238;49.556;10.956;2022-10-26T17:07:17;4.72;;;4.30;;
20154;SDS011;10238;49.556;10.956;2022-10-26T17:10:05;4.43;;;4.03;;
20154;SDS011;10238;49.556;10.956;2022-10-26T17:12:54;7.32;;;4.32;;
20154;SDS011;10238;49.556;10.956;2022-10-26T17:15:42;6.45;;;4.53;;
20154;SDS011;10238;49.556;10.956;2022-10-26T17:21:50;5.57;;;4.45;;
20154;SDS011;10238;49.556;10.956;2022-10-26T17:24:38;5.40;;;3.90;;
20154;SDS011;10238;49.556;10.956;2022-10-26T17:27:26;4.15;;;3.25;;
20154;SDS011;10238;49.556;10.956;2022-10-26T17:30:14;4.30;;;3.45;;
20154;SDS011;10238;49.556;10.956;2022-10-26T17:33:02;4.55;;;3.33;;
20154;SDS011;10238;49.556;10.956;2022-10-26T17:35:51;4.65;;;3.22;;
20154;SDS011;10238;49.556;10.956;2022-10-26T17:38:41;4.13;;;3.10;;
20154;SDS011;10238;49.556;10.956;2022-10-26T17:41:30;4.00;;;3.05;;
20154;SDS011;10238;49.556;10.956;2022-10-26T17:44:17;5.75;;;3.60;;
20154;SDS011;10238;49.556;10.956;2022-10-26T17:47:05;4.40;;;3.97;;